sensor_id;sensor_type;location;lat;lon;timestamp;pressure;altitude;pressure_sealevel;temperature;humidity
11172;BME280;5642;50.830;12.082;2022-11-15T00:00:48;99329.19;;;10.64;46.83
11172;BME280;5642;50.830;12.082;2022-11-15T00:03:19;99328.16;;;10.68;47.00
11172;BME280;5642;50.830;12.082;2022-11-15T00:05:46;99332.41;;;10.72;46.89
11172;BME280;5642;50.830;12.082;2022-11-15T00:08:12;99329.72;;;10.74;46.92
11172;BME280;5642;50.830;12.082;2022-11-15T00:10:39;99332.16;;;10.80;47.01
11172;BME280;5642;50.830;12.082;2022-11-15T00:13:14;99330.31;;;10.82;46.84
11172;BME280;5642;50.830;12.082;2022-11-15T00:15:41;99333.66;;;10.87;46.57
11172;BME280;5642;50.830;12.082;2022-11-15T00:18:13;99326.56;;;10.89;47.00
11172;BME280;5642;50.830;12.082;2022-11-15T00:20:39;99318.88;;;10.84;47.17
11172;BME280;5642;50.830;12.082;2022-11-15T00:23:06;99317.84;;;10.88;47.00
11172;BME280;5642;50.830;12.082;2022-11-15T00:25:33;99312.69;;;10.87;47.02
11172;BME280;5642;50.830;12.082;2022-11-15T00:28:00;99317.84;;;10.88;47.01
11172;BME280;5642;50.830;12.082;2022-11-15T00:30:27;99321.19;;;10.93;47.05
11172;BME280;5642;50.830;12.082;2022-11-15T00:32:54;99318.50;;;10.95;46.91
11172;BME280;5642;50.830;12.082;2022-11-15T00:35:20;99314.13;;;10.95;47.08
11172;BME280;5642;50.830;12.082;2022-11-15T00:37:46;99315.88;;;10.95;46.86
11172;BME280;5642;50.830;12.082;2022-11-15T00:40:15;99247.41;;;10.54;46.88
11172;BME280;5642;50.830;12.082;2022-11-15T00:42:41;99321.97;;;10.95;46.87
11172;BME280;5642;50.830;12.082;2022-11-15T00:45:08;99325.50;;;10.94;47.05
11172;BME280;5642;50.830;12.082;2022-11-15T00:47:36;99316.25;;;10.84;47.25
11172;BME280;5642;50.830;12.082;2022-11-15T00:50:03;99321.28;;;10.90;47.28
11172;BME280;5642;50.830;12.082;2022-11-15T00:52:30;99323.81;;;10.93;47.38
11172;BME280;5642;50.830;12.082;2022-11-15T00:54:56;99321.19;;;10.93;47.28
11172;BME280;5642;50.830;12.082;2022-11-15T00:57:22;99319.53;;;10.91;47.23
11172;BME280;5642;50.830;12.082;2022-11-15T00:59:49;99317.16;;;10.83;46.94
11172;BME280;5642;50.830;12.082;2022-11-15T01:02:15;99316.34;;;10.81;47.29
11172;BME280;5642;50.830;12.082;2022-11-15T01:04:41;99317.38;;;10.77;47.48
11172;BME280;5642;50.830;12.082;2022-11-15T01:07:07;99294.34;;;10.60;47.48
11172;BME280;5642;50.830;12.082;2022-11-15T01:09:33;99312.31;;;10.73;47.55
11172;BME280;5642;50.830;12.082;2022-11-15T01:11:59;99308.91;;;10.69;47.45
11172;BME280;5642;50.830;12.082;2022-11-15T01:14:25;99301.28;;;10.63;47.42
11172;BME280;5642;50.830;12.082;2022-11-15T01:16:51;99312.47;;;10.67;47.45
11172;BME280;5642;50.830;12.082;2022-11-15T01:19:17;99303.72;;;10.68;47.43
11172;BME280;5642;50.830;12.082;2022-11-15T01:21:44;99300.31;;;10.66;47.29
11172;BME280;5642;50.830;12.082;2022-11-15T01:24:12;99308.19;;;10.66;46.99
11172;BME280;5642;50.830;12.082;2022-11-15T01:26:39;99291.03;;;10.55;47.24
11172;BME280;5642;50.830;12.082;2022-11-15T01:29:05;99287.47;;;10.58;47.09
11172;BME280;5642;50.830;12.082;2022-11-15T01:31:31;99284.84;;;10.58;47.31
11172;BME280;5642;50.830;12.082;2022-11-15T01:33:57;99295.25;;;10.59;47.25
11172;BME280;5642;50.830;12.082;2022-11-15T01:36:23;99288.50;;;10.52;47.20
11172;BME280;5642;50.830;12.082;2022-11-15T01:38:54;99294.56;;;10.54;47.34
11172;BME280;5642;50.830;12.082;2022-11-15T01:41:27;99286.81;;;10.51;47.19
11172;BME280;5642;50.830;12.082;2022-11-15T01:43:57;99290.38;;;10.49;47.26
11172;BME280;5642;50.830;12.082;2022-11-15T01:46:25;99286.00;;;10.49;47.31
11172;BME280;5642;50.830;12.082;2022-11-15T01:48:54;99285.16;;;10.49;47.36
11172;BME280;5642;50.830;12.082;2022-11-15T01:51:23;99265.28;;;10.43;47.25
11172;BME280;5642;50.830;12.082;2022-11-15T01:53:54;99283.22;;;10.54;47.31
11172;BME280;5642;50.830;12.082;2022-11-15T01:56:27;99278.00;;;10.54;47.35
11172;BME280;5642;50.830;12.082;2022-11-15T01:58:58;99280.56;;;10.55;47.42
11172;BME280;5642;50.830;12.082;2022-11-15T02:01:27;99284.03;;;10.56;47.32
11172;BME280;5642;50.830;12.082;2022-11-15T02:03:58;99280.56;;;10.55;47.33
11172;BME280;5642;50.830;12.082;2022-11-15T02:06:25;99282.31;;;10.55;47.60
11172;BME280;5642;50.830;12.082;2022-11-15T02:08:51;99277.13;;;10.53;47.82
11172;BME280;5642;50.830;12.082;2022-11-15T02:11:18;99265.16;;;10.46;47.50
11172;BME280;5642;50.830;12.082;2022-11-15T02:13:45;99270.94;;;10.56;47.52
11172;BME280;5642;50.830;12.082;2022-11-15T02:16:42;99274.38;;;10.58;47.45
11172;BME280;5642;50.830;12.082;2022-11-15T02:30:41;99257.03;;;10.54;47.64
11172;BME280;5642;50.830;12.082;2022-11-15T02:33:20;99247.34;;;10.57;47.67
11172;BME280;5642;50.830;12.082;2022-11-15T02:35:59;99244.63;;;10.59;47.67
11172;BME280;5642;50.830;12.082;2022-11-15T02:38:47;99244.59;;;10.60;47.40
11172;BME280;5642;50.830;12.082;2022-11-15T02:42:07;99243.69;;;10.62;47.67
11172;BME280;5642;50.830;12.082;2022-11-15T02:44:26;99243.72;;;10.60;47.50
11172;BME280;5642;50.830;12.082;2022-11-15T02:47:07;99238.50;;;10.60;47.42
11172;BME280;5642;50.830;12.082;2022-11-15T02:49:48;99236.91;;;10.56;47.58
11172;BME280;5642;50.830;12.082;2022-11-15T02:52:26;99229.22;;;10.51;47.83
11172;BME280;5642;50.830;12.082;2022-11-15T02:54:57;99241.28;;;10.55;47.78
11172;BME280;5642;50.830;12.082;2022-11-15T02:57:43;99240.44;;;10.55;47.64
11172;BME280;5642;50.830;12.082;2022-11-15T03:00:17;99243.09;;;10.53;47.63
11172;BME280;5642;50.830;12.082;2022-11-15T03:18:51;99220.63;;;10.46;47.60
11172;BME280;5642;50.830;12.082;2022-11-15T03:21:19;99214.50;;;10.47;47.56
11172;BME280;5642;50.830;12.082;2022-11-15T03:23:48;99205.91;;;10.44;47.56
11172;BME280;5642;50.830;12.082;2022-11-15T03:26:16;99213.69;;;10.45;47.47
11172;BME280;5642;50.830;12.082;2022-11-15T03:28:52;99205.03;;;10.43;47.55
11172;BME280;5642;50.830;12.082;2022-11-15T03:31:21;99210.31;;;10.42;47.49
11172;BME280;5642;50.830;12.082;2022-11-15T03:34:11;99201.88;;;10.34;47.54
11172;BME280;5642;50.830;12.082;2022-11-15T03:36:40;99209.63;;;10.37;47.79
11172;BME280;5642;50.830;12.082;2022-11-15T03:39:08;99207.03;;;10.37;47.74
11172;BME280;5642;50.830;12.082;2022-11-15T03:46:48;99212.94;;;10.42;47.68
11172;BME280;5642;50.830;12.082;2022-11-15T03:49:24;99213.81;;;10.42;47.59
11172;BME280;5642;50.830;12.082;2022-11-15T03:51:51;99200.81;;;10.39;47.71
11172;BME280;5642;50.830;12.082;2022-11-15T03:54:17;99204.22;;;10.41;47.53
11172;BME280;5642;50.830;12.082;2022-11-15T03:56:43;99203.44;;;10.39;47.89
11172;BME280;5642;50.830;12.082;2022-11-15T03:59:09;99198.22;;;10.38;47.92
11172;BME280;5642;50.830;12.082;2022-11-15T04:01:35;99201.72;;;10.38;47.84
11172;BME280;5642;50.830;12.082;2022-11-15T04:04:02;99188.78;;;10.34;47.52
11172;BME280;5642;50.830;12.082;2022-11-15T04:06:28;99203.53;;;10.36;47.71
11172;BME280;5642;50.830;12.082;2022-11-15T04:08:56;99201.91;;;10.32;47.64
11172;BME280;5642;50.830;12.082;2022-11-15T04:11:22;99210.63;;;10.33;47.70
11172;BME280;5642;50.830;12.082;2022-11-15T04:13:49;99210.75;;;10.30;47.66
11172;BME280;5642;50.830;12.082;2022-11-15T04:16:16;99222.13;;;10.29;47.65
11172;BME280;5642;50.830;12.082;2022-11-15T04:18:43;99219.56;;;10.27;47.74
11172;BME280;5642;50.830;12.082;2022-11-15T04:21:11;99215.25;;;10.25;47.62
11172;BME280;5642;50.830;12.082;2022-11-15T04:23:58;99218.84;;;10.22;47.59
11172;BME280;5642;50.830;12.082;2022-11-15T04:26:32;99225.00;;;10.21;47.68
11172;BME280;5642;50.830;12.082;2022-11-15T04:28:59;99212.69;;;10.23;47.90
11172;BME280;5642;50.830;12.082;2022-11-15T04:31:45;99201.53;;;10.16;47.89
11172;BME280;5642;50.830;12.082;2022-11-15T04:34:12;99207.56;;;10.20;47.61
11172;BME280;5642;50.830;12.082;2022-11-15T04:36:40;99199.91;;;10.14;47.55
11172;BME280;5642;50.830;12.082;2022-11-15T04:39:25;99204.31;;;10.12;47.70
11172;BME280;5642;50.830;12.082;2022-11-15T04:41:52;99190.53;;;10.07;47.62
11172;BME280;5642;50.830;12.082;2022-11-15T04:44:18;99196.50;;;10.10;47.91
11172;BME280;5642;50.830;12.082;2022-11-15T04:46:44;99189.50;;;10.11;47.75
11172;BME280;5642;50.830;12.082;2022-11-15T04:49:11;99187.75;;;10.11;47.66
11172;BME280;5642;50.830;12.082;2022-11-15T04:51:38;99190.41;;;10.10;47.77
11172;BME280;5642;50.830;12.082;2022-11-15T04:54:05;99186.94;;;10.09;47.80
11172;BME280;5642;50.830;12.082;2022-11-15T04:56:31;99188.78;;;10.07;47.93
11172;BME280;5642;50.830;12.082;2022-11-15T04:58:58;99190.53;;;10.07;47.83
11172;BME280;5642;50.830;12.082;2022-11-15T05:01:27;99176.84;;;9.99;47.63
11172;BME280;5642;50.830;12.082;2022-11-15T05:03:55;99181.22;;;9.98;47.79
11172;BME280;5642;50.830;12.082;2022-11-15T05:06:41;99189.31;;;9.91;48.07
11172;BME280;5642;50.830;12.082;2022-11-15T05:09:09;99188.50;;;9.89;47.97
11172;BME280;5642;50.830;12.082;2022-11-15T05:11:36;99183.44;;;9.84;47.95
11172;BME280;5642;50.830;12.082;2022-11-15T05:14:05;99176.53;;;9.81;48.00
11172;BME280;5642;50.830;12.082;2022-11-15T05:16:31;99172.16;;;9.82;47.73
11172;BME280;5642;50.830;12.082;2022-11-15T05:18:58;99174.81;;;9.80;47.68
11172;BME280;5642;50.830;12.082;2022-11-15T05:21:25;99165.41;;;9.75;47.65
11172;BME280;5642;50.830;12.082;2022-11-15T05:23:52;99172.47;;;9.73;47.85
11172;BME280;5642;50.830;12.082;2022-11-15T05:26:19;99169.94;;;9.70;47.97
11172;BME280;5642;50.830;12.082;2022-11-15T05:28:45;99167.47;;;9.65;47.71
11172;BME280;5642;50.830;12.082;2022-11-15T05:31:14;99166.66;;;9.63;47.88
11172;BME280;5642;50.830;12.082;2022-11-15T05:33:42;99164.19;;;9.59;48.10
11172;BME280;5642;50.830;12.082;2022-11-15T05:38:57;99165.53;;;9.44;47.95
11172;BME280;5642;50.830;12.082;2022-11-15T05:41:32;99170.75;;;9.44;47.84
11172;BME280;5642;50.830;12.082;2022-11-15T05:44:01;99169.03;;;9.43;47.74
11172;BME280;5642;50.830;12.082;2022-11-15T05:46:28;99181.22;;;9.44;48.10
11172;BME280;5642;50.830;12.082;2022-11-15T05:48:55;99181.28;;;9.41;48.04
11172;BME280;5642;50.830;12.082;2022-11-15T05:51:22;99187.34;;;9.43;48.25
11172;BME280;5642;50.830;12.082;2022-11-15T05:53:49;99188.19;;;9.43;48.03
11172;BME280;5642;50.830;12.082;2022-11-15T05:56:17;99183.16;;;9.37;47.64
11172;BME280;5642;50.830;12.082;2022-11-15T05:58:43;99182.31;;;9.37;47.96
11172;BME280;5642;50.830;12.082;2022-11-15T06:01:09;99172.00;;;9.31;47.78
11172;BME280;5642;50.830;12.082;2022-11-15T06:03:35;99180.56;;;9.37;48.17
11172;BME280;5642;50.830;12.082;2022-11-15T06:06:01;99181.44;;;9.36;47.91
11172;BME280;5642;50.830;12.082;2022-11-15T06:08:27;99173.66;;;9.35;47.97
11172;BME280;5642;50.830;12.082;2022-11-15T06:10:53;99180.59;;;9.36;48.13
11172;BME280;5642;50.830;12.082;2022-11-15T06:13:20;99186.66;;;9.36;48.37
11172;BME280;5642;50.830;12.082;2022-11-15T06:15:47;99149.00;;;9.14;47.98
11172;BME280;5642;50.830;12.082;2022-11-15T06:18:14;99184.75;;;9.41;48.26
11172;BME280;5642;50.830;12.082;2022-11-15T06:20:40;99183.94;;;9.39;48.26
11172;BME280;5642;50.830;12.082;2022-11-15T06:23:06;99182.16;;;9.41;48.50
11172;BME280;5642;50.830;12.082;2022-11-15T06:25:31;99183.00;;;9.42;48.59
11172;BME280;5642;50.830;12.082;2022-11-15T06:27:58;99185.59;;;9.43;48.18
11172;BME280;5642;50.830;12.082;2022-11-15T06:30:26;99176.84;;;9.45;48.19
11172;BME280;5642;50.830;12.082;2022-11-15T06:32:59;99184.63;;;9.46;48.22
11172;BME280;5642;50.830;12.082;2022-11-15T06:35:27;99189.81;;;9.48;48.62
11172;BME280;5642;50.830;12.082;2022-11-15T06:37:53;99187.16;;;9.49;48.47
11172;BME280;5642;50.830;12.082;2022-11-15T06:40:19;99180.28;;;9.45;48.29
11172;BME280;5642;50.830;12.082;2022-11-15T06:42:45;99185.47;;;9.47;48.33
11172;BME280;5642;50.830;12.082;2022-11-15T06:45:11;99172.78;;;9.34;48.22
11172;BME280;5642;50.830;12.082;2022-11-15T06:47:46;99175.56;;;9.30;48.24
11172;BME280;5642;50.830;12.082;2022-11-15T06:50:13;99178.94;;;9.32;48.45
11172;BME280;5642;50.830;12.082;2022-11-15T06:52:39;99187.53;;;9.37;48.48
11172;BME280;5642;50.830;12.082;2022-11-15T06:55:06;99189.31;;;9.35;48.16
11172;BME280;5642;50.830;12.082;2022-11-15T06:57:32;99189.31;;;9.35;48.58
11172;BME280;5642;50.830;12.082;2022-11-15T06:59:58;99188.28;;;9.40;48.31
11172;BME280;5642;50.830;12.082;2022-11-15T07:02:25;99193.44;;;9.43;48.65
11172;BME280;5642;50.830;12.082;2022-11-15T07:04:51;99181.25;;;9.42;48.65
11172;BME280;5642;50.830;12.082;2022-11-15T07:07:18;99193.97;;;9.53;48.63
11172;BME280;5642;50.830;12.082;2022-11-15T07:09:45;99200.72;;;9.60;48.87
11172;BME280;5642;50.830;12.082;2022-11-15T07:12:11;99200.50;;;9.68;48.93
11172;BME280;5642;50.830;12.082;2022-11-15T07:14:37;99195.03;;;9.75;48.69
11172;BME280;5642;50.830;12.082;2022-11-15T07:17:04;99197.31;;;9.86;48.79
11172;BME280;5642;50.830;12.082;2022-11-15T07:19:31;99184.16;;;9.88;48.75
11172;BME280;5642;50.830;12.082;2022-11-15T07:25:48;99194.91;;;10.06;48.92
11172;BME280;5642;50.830;12.082;2022-11-15T07:28:13;99189.38;;;10.15;48.90
11172;BME280;5642;50.830;12.082;2022-11-15T07:30:40;99193.38;;;10.27;48.89
11172;BME280;5642;50.830;12.082;2022-11-15T07:33:07;99184.41;;;10.34;48.77
11172;BME280;5642;50.830;12.082;2022-11-15T07:35:33;99182.44;;;10.41;48.64
11172;BME280;5642;50.830;12.082;2022-11-15T07:38:01;99184.78;;;10.48;48.94
11172;BME280;5642;50.830;12.082;2022-11-15T07:40:29;99185.25;;;10.59;48.80
11172;BME280;5642;50.830;12.082;2022-11-15T07:43:03;99188.41;;;10.69;48.86
11172;BME280;5642;50.830;12.082;2022-11-15T07:45:42;99182.91;;;10.77;48.75
11172;BME280;5642;50.830;12.082;2022-11-15T07:48:09;99187.81;;;10.86;48.84
11172;BME280;5642;50.830;12.082;2022-11-15T07:50:35;99179.78;;;10.90;48.93
11172;BME280;5642;50.830;12.082;2022-11-15T07:53:01;99178.47;;;11.02;48.76
11172;BME280;5642;50.830;12.082;2022-11-15T07:55:28;99177.28;;;11.11;48.63
11172;BME280;5642;50.830;12.082;2022-11-15T07:58:06;99184.66;;;11.23;48.82
11172;BME280;5642;50.830;12.082;2022-11-15T08:00:34;99182.63;;;11.31;48.87
11172;BME280;5642;50.830;12.082;2022-11-15T08:05:30;99177.47;;;11.51;48.91
11172;BME280;5642;50.830;12.082;2022-11-15T08:07:57;99167.66;;;11.56;48.93
11172;BME280;5642;50.830;12.082;2022-11-15T08:10:28;99172.38;;;11.70;48.54
11172;BME280;5642;50.830;12.082;2022-11-15T08:13:04;99177.28;;;11.79;48.51
11172;BME280;5642;50.830;12.082;2022-11-15T08:15:32;99177.91;;;11.86;48.85
11172;BME280;5642;50.830;12.082;2022-11-15T08:18:04;99167.09;;;11.93;48.80
11172;BME280;5642;50.830;12.082;2022-11-15T08:20:33;99167.75;;;11.98;48.55
11172;BME280;5642;50.830;12.082;2022-11-15T08:23:01;99148.47;;;11.99;48.87
11172;BME280;5642;50.830;12.082;2022-11-15T08:25:32;99157.47;;;12.14;48.85
11172;BME280;5642;50.830;12.082;2022-11-15T08:28:03;99158.13;;;12.19;48.94
11172;BME280;5642;50.830;12.082;2022-11-15T08:30:36;99150.19;;;12.21;48.74
11172;BME280;5642;50.830;12.082;2022-11-15T08:33:05;99152.00;;;12.19;48.74
11172;BME280;5642;50.830;12.082;2022-11-15T08:35:32;99147.47;;;12.22;48.98
11172;BME280;5642;50.830;12.082;2022-11-15T08:37:58;99134.75;;;12.13;49.24
11172;BME280;5642;50.830;12.082;2022-11-15T08:40:25;99136.00;;;12.25;49.28
11172;BME280;5642;50.830;12.082;2022-11-15T08:42:53;99122.00;;;12.24;49.07
11172;BME280;5642;50.830;12.082;2022-11-15T08:45:21;99139.63;;;12.42;48.91
11172;BME280;5642;50.830;12.082;2022-11-15T08:47:47;99140.13;;;12.50;48.98
11172;BME280;5642;50.830;12.082;2022-11-15T08:50:15;99122.25;;;12.59;49.04
11172;BME280;5642;50.830;12.082;2022-11-15T08:52:41;99115.16;;;12.61;49.17
11172;BME280;5642;50.830;12.082;2022-11-15T08:55:09;99119.84;;;12.73;49.02
11172;BME280;5642;50.830;12.082;2022-11-15T08:57:36;99113.63;;;12.75;49.05
11172;BME280;5642;50.830;12.082;2022-11-15T09:00:03;99119.09;;;12.89;49.13
11172;BME280;5642;50.830;12.082;2022-11-15T09:02:31;99115.16;;;13.00;48.96
11172;BME280;5642;50.830;12.082;2022-11-15T09:04:57;99125.81;;;13.15;49.06
11172;BME280;5642;50.830;12.082;2022-11-15T09:07:23;99101.09;;;13.19;49.14
11172;BME280;5642;50.830;12.082;2022-11-15T09:09:50;99112.63;;;13.36;48.97
11172;BME280;5642;50.830;12.082;2022-11-15T09:12:16;99113.88;;;13.46;48.96
11172;BME280;5642;50.830;12.082;2022-11-15T09:14:43;99114.28;;;13.55;49.06
11172;BME280;5642;50.830;12.082;2022-11-15T09:17:10;99118.16;;;13.65;48.94
11172;BME280;5642;50.830;12.082;2022-11-15T09:19:39;99121.22;;;13.75;48.87
11172;BME280;5642;50.830;12.082;2022-11-15T09:22:06;99101.84;;;13.76;48.90
11172;BME280;5642;50.830;12.082;2022-11-15T09:24:35;99111.41;;;13.96;48.88
11172;BME280;5642;50.830;12.082;2022-11-15T09:27:02;99103.03;;;14.05;48.78
11172;BME280;5642;50.830;12.082;2022-11-15T09:29:30;99107.69;;;14.17;48.77
11172;BME280;5642;50.830;12.082;2022-11-15T09:31:58;99097.44;;;14.28;48.67
11172;BME280;5642;50.830;12.082;2022-11-15T09:34:25;99090.81;;;14.38;48.69
11172;BME280;5642;50.830;12.082;2022-11-15T09:36:52;99082.50;;;14.46;48.68
11172;BME280;5642;50.830;12.082;2022-11-15T09:39:19;99077.59;;;14.56;48.58
11172;BME280;5642;50.830;12.082;2022-11-15T09:42:06;99062.22;;;14.64;48.60
11172;BME280;5642;50.830;12.082;2022-11-15T09:45:10;99072.13;;;14.76;48.59
11172;BME280;5642;50.830;12.082;2022-11-15T09:48:16;99077.66;;;14.87;48.50
11172;BME280;5642;50.830;12.082;2022-11-15T09:50:49;99079.88;;;14.95;48.54
11172;BME280;5642;50.830;12.082;2022-11-15T09:53:36;99057.94;;;14.94;48.55
11172;BME280;5642;50.830;12.082;2022-11-15T09:56:15;99061.94;;;15.17;48.57
11172;BME280;5642;50.830;12.082;2022-11-15T10:04:07;99053.25;;;15.46;48.58
11172;BME280;5642;50.830;12.082;2022-11-15T10:06:38;99050.31;;;15.51;48.23
11172;BME280;5642;50.830;12.082;2022-11-15T10:09:15;99042.94;;;15.57;48.31
11172;BME280;5642;50.830;12.082;2022-11-15T10:11:42;99054.66;;;15.83;48.46
11172;BME280;5642;50.830;12.082;2022-11-15T10:14:11;99053.06;;;16.53;48.88
11172;BME280;5642;50.830;12.082;2022-11-15T10:17:02;99039.84;;;17.64;49.75
11172;BME280;5642;50.830;12.082;2022-11-15T10:20:21;99032.03;;;19.38;50.35
11172;BME280;5642;50.830;12.082;2022-11-15T10:22:51;99034.50;;;20.68;50.85
11172;BME280;5642;50.830;12.082;2022-11-15T10:30:46;98999.31;;;23.74;49.25
11172;BME280;5642;50.830;12.082;2022-11-15T10:41:30;98976.03;;;27.15;47.94
11172;BME280;5642;50.830;12.082;2022-11-15T10:44:11;98971.63;;;27.64;47.43
11172;BME280;5642;50.830;12.082;2022-11-15T10:46:40;98964.09;;;27.84;47.02
11172;BME280;5642;50.830;12.082;2022-11-15T10:49:20;98973.47;;;28.12;46.80
11172;BME280;5642;50.830;12.082;2022-11-15T10:51:56;98968.44;;;28.17;46.53
11172;BME280;5642;50.830;12.082;2022-11-15T10:54:39;98963.03;;;28.09;46.57
11172;BME280;5642;50.830;12.082;2022-11-15T10:57:17;98972.13;;;28.24;46.33
11172;BME280;5642;50.830;12.082;2022-11-15T10:59:47;98956.66;;;28.34;46.45
11172;BME280;5642;50.830;12.082;2022-11-15T11:04:51;98957.16;;;28.22;46.32
11172;BME280;5642;50.830;12.082;2022-11-15T11:07:23;98926.38;;;28.16;45.73
11172;BME280;5642;50.830;12.082;2022-11-15T11:10:20;98949.75;;;28.24;45.94
11172;BME280;5642;50.830;12.082;2022-11-15T11:12:46;98948.25;;;27.89;46.01
11172;BME280;5642;50.830;12.082;2022-11-15T11:15:15;98944.22;;;27.52;45.57
11172;BME280;5642;50.830;12.082;2022-11-15T11:18:15;98951.00;;;27.06;45.10
11172;BME280;5642;50.830;12.082;2022-11-15T11:21:00;98942.31;;;26.44;45.12
11172;BME280;5642;50.830;12.082;2022-11-15T11:24:04;98944.03;;;26.02;45.00
11172;BME280;5642;50.830;12.082;2022-11-15T11:32:01;98934.56;;;24.46;43.88
11172;BME280;5642;50.830;12.082;2022-11-15T11:37:39;98930.91;;;23.33;43.91
11172;BME280;5642;50.830;12.082;2022-11-15T11:40:32;98941.28;;;22.98;43.87
11172;BME280;5642;50.830;12.082;2022-11-15T11:48:46;98925.00;;;21.79;43.60
11172;BME280;5642;50.830;12.082;2022-11-15T11:51:47;98920.56;;;21.48;43.60
11172;BME280;5642;50.830;12.082;2022-11-15T11:54:48;98921.66;;;21.14;43.55
11172;BME280;5642;50.830;12.082;2022-11-15T11:57:36;98918.59;;;20.75;43.43
11172;BME280;5642;50.830;12.082;2022-11-15T12:00:26;98916.09;;;20.40;43.56
11172;BME280;5642;50.830;12.082;2022-11-15T12:05:38;98894.19;;;19.81;43.40
11172;BME280;5642;50.830;12.082;2022-11-15T12:08:26;98906.00;;;19.66;43.48
11172;BME280;5642;50.830;12.082;2022-11-15T12:11:19;98893.59;;;19.42;43.55
11172;BME280;5642;50.830;12.082;2022-11-15T12:13:49;98901.63;;;19.30;43.53
11172;BME280;5642;50.830;12.082;2022-11-15T12:16:21;98882.97;;;19.07;43.57
11172;BME280;5642;50.830;12.082;2022-11-15T12:18:53;98886.06;;;19.01;43.49
11172;BME280;5642;50.830;12.082;2022-11-15T12:21:41;98893.16;;;18.90;43.37
11172;BME280;5642;50.830;12.082;2022-11-15T12:24:14;98890.41;;;18.78;43.57
11172;BME280;5642;50.830;12.082;2022-11-15T12:26:56;98884.72;;;18.72;43.41
11172;BME280;5642;50.830;12.082;2022-11-15T12:29:38;98887.94;;;18.64;43.39
11172;BME280;5642;50.830;12.082;2022-11-15T12:32:18;98880.59;;;18.55;43.41
11172;BME280;5642;50.830;12.082;2022-11-15T12:34:49;98852.75;;;18.37;43.60
11172;BME280;5642;50.830;12.082;2022-11-15T12:48:44;98862.19;;;18.41;43.33
11172;BME280;5642;50.830;12.082;2022-11-15T12:50:58;98868.78;;;18.35;43.26
11172;BME280;5642;50.830;12.082;2022-11-15T12:53:27;98816.78;;;18.09;43.18
11172;BME280;5642;50.830;12.082;2022-11-15T12:58:45;98855.56;;;18.23;43.25
11172;BME280;5642;50.830;12.082;2022-11-15T13:06:59;98859.25;;;18.20;43.33
11172;BME280;5642;50.830;12.082;2022-11-15T13:15:32;98845.41;;;18.17;43.37
11172;BME280;5642;50.830;12.082;2022-11-15T13:18:25;98843.81;;;18.14;43.31
11172;BME280;5642;50.830;12.082;2022-11-15T13:20:53;98845.84;;;18.11;43.44
11172;BME280;5642;50.830;12.082;2022-11-15T13:23:21;98837.66;;;18.14;43.28
11172;BME280;5642;50.830;12.082;2022-11-15T13:26:26;98843.28;;;18.09;43.34
11172;BME280;5642;50.830;12.082;2022-11-15T13:28:53;98832.69;;;18.09;43.35
11172;BME280;5642;50.830;12.082;2022-11-15T13:34:02;98822.69;;;18.13;43.45
11172;BME280;5642;50.830;12.082;2022-11-15T13:36:33;98820.28;;;18.10;43.29
11172;BME280;5642;50.830;12.082;2022-11-15T13:39:12;98831.19;;;18.18;43.23
11172;BME280;5642;50.830;12.082;2022-11-15T13:41:50;98805.44;;;18.07;43.37
11172;BME280;5642;50.830;12.082;2022-11-15T13:44:57;98814.03;;;18.11;43.26
11172;BME280;5642;50.830;12.082;2022-11-15T13:47:26;98828.13;;;18.11;43.12
11172;BME280;5642;50.830;12.082;2022-11-15T13:49:59;98779.22;;;17.79;43.38
11172;BME280;5642;50.830;12.082;2022-11-15T13:52:31;98826.53;;;18.09;43.18
11172;BME280;5642;50.830;12.082;2022-11-15T13:57:41;98820.50;;;18.07;43.15
11172;BME280;5642;50.830;12.082;2022-11-15T14:02:54;98794.91;;;17.82;43.32
11172;BME280;5642;50.830;12.082;2022-11-15T14:05:23;98810.97;;;17.91;43.23
11172;BME280;5642;50.830;12.082;2022-11-15T14:08:03;98773.84;;;17.68;43.15
11172;BME280;5642;50.830;12.082;2022-11-15T14:10:36;98803.16;;;17.77;43.09
11172;BME280;5642;50.830;12.082;2022-11-15T14:13:27;98814.69;;;17.76;43.32
11172;BME280;5642;50.830;12.082;2022-11-15T14:15:54;98802.22;;;17.66;43.10
11172;BME280;5642;50.830;12.082;2022-11-15T14:18:49;98804.22;;;17.62;43.14
11172;BME280;5642;50.830;12.082;2022-11-15T14:21:17;98797.00;;;17.51;43.32
11172;BME280;5642;50.830;12.082;2022-11-15T14:23:43;98798.38;;;17.44;43.29
11172;BME280;5642;50.830;12.082;2022-11-15T14:26:33;98790.13;;;17.36;43.14
11172;BME280;5642;50.830;12.082;2022-11-15T14:29:22;98795.31;;;17.25;43.27
11172;BME280;5642;50.830;12.082;2022-11-15T14:31:51;98788.09;;;17.14;43.39
11172;BME280;5642;50.830;12.082;2022-11-15T14:34:17;98786.81;;;17.07;43.49
11172;BME280;5642;50.830;12.082;2022-11-15T14:36:43;98774.53;;;16.94;43.52
11172;BME280;5642;50.830;12.082;2022-11-15T14:39:11;98773.06;;;16.90;43.43
11172;BME280;5642;50.830;12.082;2022-11-15T14:41:37;98781.59;;;16.93;43.54
11172;BME280;5642;50.830;12.082;2022-11-15T14:44:09;98772.19;;;16.89;43.43
11172;BME280;5642;50.830;12.082;2022-11-15T14:46:36;98766.75;;;16.78;43.37
11172;BME280;5642;50.830;12.082;2022-11-15T14:49:04;98764.03;;;16.79;43.53
11172;BME280;5642;50.830;12.082;2022-11-15T14:51:30;98768.38;;;16.80;43.42
11172;BME280;5642;50.830;12.082;2022-11-15T14:53:58;98740.09;;;16.68;43.58
11172;BME280;5642;50.830;12.082;2022-11-15T14:56:25;98746.03;;;16.72;43.35
11172;BME280;5642;50.830;12.082;2022-11-15T14:58:51;98747.38;;;16.65;43.28
11172;BME280;5642;50.830;12.082;2022-11-15T15:01:21;98747.28;;;16.66;43.46
11172;BME280;5642;50.830;12.082;2022-11-15T15:03:47;98726.50;;;16.48;43.18
11172;BME280;5642;50.830;12.082;2022-11-15T15:06:13;98741.72;;;16.57;43.33
11172;BME280;5642;50.830;12.082;2022-11-15T15:08:40;98720.63;;;16.42;43.26
11172;BME280;5642;50.830;12.082;2022-11-15T15:11:12;98715.84;;;16.35;43.25
11172;BME280;5642;50.830;12.082;2022-11-15T15:13:41;98726.66;;;16.32;43.30
11172;BME280;5642;50.830;12.082;2022-11-15T15:16:07;98731.41;;;16.27;43.41
11172;BME280;5642;50.830;12.082;2022-11-15T15:18:35;98735.47;;;16.18;43.28